Irini — SYZA — position and weather

sailwx.info

Track history (hours):
 
Tides and Currents Weather Stations Pressure Air Temp Water Temp Dewpoint Dewpoint Depression Visibility Wind Speed Wind Dir Waves Ship Positions

Irini

Last reported at 2015-Mar-27 11:27 UTC. Time now 2015-Mar-27 12:00 UTC.
Position N 38°02' E 023°31'.

Length 137 m; draft 7.4 m.

Type: Ship (hazmat cat A). MMSI: 240052000.

Date/timePositionNaut miles runAvg speedWind from/ knotsBaromVisibWave heightAir tempDewpointWater temp
2015-Mar-27 11:27N 38°02' E 023°31'0 0.0
2015-Mar-27 10:30N 38°02' E 023°31'0 0.0
2015-Mar-27 09:33N 38°02' E 023°31'0 0.0
2015-Mar-27 08:30N 38°02' E 023°31'3 0.1
2015-Mar-26 10:27N 38°00' E 023°33'6 7.1
2015-Mar-26 09:33N 37°54' E 023°36'1010.1
2015-Mar-26 08:33N 37°45' E 023°42'1111.1
2015-Mar-26 07:33N 37°38' E 023°53'  
2015-Mar-23 11:33N 37°37' E 023°53'1110.5
2015-Mar-23 10:33N 37°42' E 023°42'1111.1
2015-Mar-23 09:33N 37°52' E 023°37'9 0.4
2015-Mar-22 10:22N 38°01' E 023°35'4 0.6
2015-Mar-22 04:15N 38°02' E 023°31'0 0.0
2015-Mar-22 03:03N 38°02' E 023°31'0 0.0
2015-Mar-21 20:15N 38°02' E 023°31'0 0.0
2015-Mar-21 14:27N 38°02' E 023°31'2 0.4
2015-Mar-21 10:20N 38°01' E 023°32'7 8.7
2015-Mar-21 09:33N 37°55' E 023°37'10 9.7
2015-Mar-21 08:33N 37°46' E 023°42'1110.7
2015-Mar-21 07:33N 37°38' E 023°51'  
2015-Mar-18 12:29N 37°36' E 023°57'1010.9
2015-Mar-18 11:33N 37°39' E 023°44'1111.3
2015-Mar-18 10:33N 37°49' E 023°38'9 9.3
2015-Mar-18 09:33N 37°57' E 023°33'5 0.3
2015-Mar-17 18:33N 38°02' E 023°31'1 0.8
2015-Mar-17 17:32N 38°01' E 023°31'0 0.0
2015-Mar-17 16:32N 38°01' E 023°31'0 0.0
2015-Mar-17 15:32N 38°01' E 023°31'0 0.0
2015-Mar-17 14:32N 38°01' E 023°31'0 0.0
2015-Mar-17 13:32N 38°01' E 023°31'0 0.0
2015-Mar-17 12:32N 38°01' E 023°31'  
Track history (hours):
 
Tides and Currents Weather Stations Pressure Air Temp Water Temp Dewpoint Dewpoint Depression Visibility Wind Speed Wind Dir Waves Ship Positions

Irini

Last reported at 2015-Mar-27 11:27 UTC. Time now 2015-Mar-27 12:00 UTC.
Position N 38°02' E 023°31'.

Length 137 m; draft 7.4 m.

Type: Ship (hazmat cat A). MMSI: 240052000.

Date/timePositionNaut miles runAvg speedWind from/ knotsBaromVisibWave heightAir tempDewpointWater temp
2015-Mar-27 11:27N 38°02' E 023°31'0 0.0
2015-Mar-27 10:30N 38°02' E 023°31'0 0.0
2015-Mar-27 09:33N 38°02' E 023°31'0 0.0
2015-Mar-27 08:30N 38°02' E 023°31'3 0.1
2015-Mar-26 10:27N 38°00' E 023°33'6 7.1
2015-Mar-26 09:33N 37°54' E 023°36'1010.1
2015-Mar-26 08:33N 37°45' E 023°42'1111.1
2015-Mar-26 07:33N 37°38' E 023°53'  
2015-Mar-23 11:33N 37°37' E 023°53'1110.5
2015-Mar-23 10:33N 37°42' E 023°42'1111.1
2015-Mar-23 09:33N 37°52' E 023°37'9 0.4
2015-Mar-22 10:22N 38°01' E 023°35'4 0.6
2015-Mar-22 04:15N 38°02' E 023°31'0 0.0
2015-Mar-22 03:03N 38°02' E 023°31'0 0.0
2015-Mar-21 20:15N 38°02' E 023°31'0 0.0
2015-Mar-21 14:27N 38°02' E 023°31'2 0.4
2015-Mar-21 10:20N 38°01' E 023°32'7 8.7
2015-Mar-21 09:33N 37°55' E 023°37'10 9.7
2015-Mar-21 08:33N 37°46' E 023°42'1110.7
2015-Mar-21 07:33N 37°38' E 023°51'  
2015-Mar-18 12:29N 37°36' E 023°57'1010.9
2015-Mar-18 11:33N 37°39' E 023°44'1111.3
2015-Mar-18 10:33N 37°49' E 023°38'9 9.3
2015-Mar-18 09:33N 37°57' E 023°33'5 0.3
2015-Mar-17 18:33N 38°02' E 023°31'1 0.8
2015-Mar-17 17:32N 38°01' E 023°31'0 0.0
2015-Mar-17 16:32N 38°01' E 023°31'0 0.0
2015-Mar-17 15:32N 38°01' E 023°31'0 0.0
2015-Mar-17 14:32N 38°01' E 023°31'0 0.0
2015-Mar-17 13:32N 38°01' E 023°31'0 0.0
2015-Mar-17 12:32N 38°01' E 023°31'  

Dump ship's entire track history